sensor_id;sensor_type;location;lat;lon;timestamp;pressure;altitude;pressure_sealevel;temperature;humidity
19672;BME280;9983;51.114;13.788;2023-02-13T00:04:51;101514.59;;;7.93;100.00
19672;BME280;9983;51.114;13.788;2023-02-13T00:09:51;101506.75;;;8.15;100.00
19672;BME280;9983;51.114;13.788;2023-02-13T00:14:51;101504.66;;;7.95;100.00
19672;BME280;9983;51.114;13.788;2023-02-13T00:19:52;101504.38;;;8.23;100.00
19672;BME280;9983;51.114;13.788;2023-02-13T00:24:52;101501.44;;;7.90;100.00
19672;BME280;9983;51.114;13.788;2023-02-13T00:29:52;101499.69;;;8.14;100.00
19672;BME280;9983;51.114;13.788;2023-02-13T00:34:52;101498.44;;;8.07;100.00
19672;BME280;9983;51.114;13.788;2023-02-13T00:39:53;101496.72;;;8.06;100.00
19672;BME280;9983;51.114;13.788;2023-02-13T00:44:53;101505.03;;;8.14;100.00
19672;BME280;9983;51.114;13.788;2023-02-13T00:49:53;101505.47;;;8.33;100.00
19672;BME280;9983;51.114;13.788;2023-02-13T00:54:53;101498.28;;;8.21;100.00
19672;BME280;9983;51.114;13.788;2023-02-13T00:59:54;101500.38;;;7.80;100.00
19672;BME280;9983;51.114;13.788;2023-02-13T01:04:54;101496.69;;;8.31;100.00
19672;BME280;9983;51.114;13.788;2023-02-13T01:09:54;101504.81;;;8.17;100.00
19672;BME280;9983;51.114;13.788;2023-02-13T01:14:54;101502.91;;;8.19;100.00
19672;BME280;9983;51.114;13.788;2023-02-13T01:19:55;101505.19;;;7.75;100.00
19672;BME280;9983;51.114;13.788;2023-02-13T01:24:55;101497.16;;;8.00;100.00
19672;BME280;9983;51.114;13.788;2023-02-13T01:29:55;101497.56;;;8.19;100.00
19672;BME280;9983;51.114;13.788;2023-02-13T01:34:56;101487.97;;;7.79;100.00
19672;BME280;9983;51.114;13.788;2023-02-13T01:39:56;101486.94;;;7.69;100.00
19672;BME280;9983;51.114;13.788;2023-02-13T01:45:02;101479.00;;;7.80;100.00
19672;BME280;9983;51.114;13.788;2023-02-13T01:50:16;101477.97;;;7.70;100.00
19672;BME280;9983;51.114;13.788;2023-02-13T01:55:18;101482.47;;;7.44;100.00
19672;BME280;9983;51.114;13.788;2023-02-13T02:00:18;101483.94;;;7.86;100.00
19672;BME280;9983;51.114;13.788;2023-02-13T02:05:21;101473.16;;;7.49;100.00
19672;BME280;9983;51.114;13.788;2023-02-13T02:10:21;101488.19;;;8.01;100.00
19672;BME280;9983;51.114;13.788;2023-02-13T02:15:22;101473.91;;;7.51;100.00
19672;BME280;9983;51.114;13.788;2023-02-13T02:25:53;101474.53;;;7.93;100.00
19672;BME280;9983;51.114;13.788;2023-02-13T02:42:09;101476.25;;;7.94;100.00
19672;BME280;9983;51.114;13.788;2023-02-13T02:47:26;101474.34;;;8.32;100.00
19672;BME280;9983;51.114;13.788;2023-02-13T02:53:16;101470.44;;;8.00;100.00
19672;BME280;9983;51.114;13.788;2023-02-13T02:58:31;101479.88;;;7.93;100.00
19672;BME280;9983;51.114;13.788;2023-02-13T03:03:51;101480.53;;;7.84;100.00
19672;BME280;9983;51.114;13.788;2023-02-13T03:09:21;101476.47;;;7.40;100.00
19672;BME280;9983;51.114;13.788;2023-02-13T03:14:42;101474.63;;;7.28;100.00
19672;BME280;9983;51.114;13.788;2023-02-13T03:31:45;101477.75;;;7.73;100.00
19672;BME280;9983;51.114;13.788;2023-02-13T03:37:01;101479.91;;;7.68;100.00
19672;BME280;9983;51.114;13.788;2023-02-13T03:42:38;101487.03;;;7.80;100.00
19672;BME280;9983;51.114;13.788;2023-02-13T03:47:41;101475.19;;;7.58;100.00
19672;BME280;9983;51.114;13.788;2023-02-13T03:53:00;101486.06;;;7.81;100.00
19672;BME280;9983;51.114;13.788;2023-02-13T03:58:05;101487.16;;;7.66;100.00
19672;BME280;9983;51.114;13.788;2023-02-13T04:03:51;101487.34;;;7.62;100.00
19672;BME280;9983;51.114;13.788;2023-02-13T04:08:49;101482.91;;;8.12;100.00
19672;BME280;9983;51.114;13.788;2023-02-13T04:13:58;101488.69;;;8.06;100.00
19672;BME280;9983;51.114;13.788;2023-02-13T04:19:00;101495.31;;;8.13;100.00
19672;BME280;9983;51.114;13.788;2023-02-13T04:24:01;101479.44;;;7.74;100.00
19672;BME280;9983;51.114;13.788;2023-02-13T04:29:02;101490.44;;;7.82;100.00
19672;BME280;9983;51.114;13.788;2023-02-13T04:34:02;101482.22;;;7.72;100.00
19672;BME280;9983;51.114;13.788;2023-02-13T04:39:03;101479.03;;;7.42;100.00
19672;BME280;9983;51.114;13.788;2023-02-13T04:44:03;101476.03;;;7.46;100.00
19672;BME280;9983;51.114;13.788;2023-02-13T04:49:03;101484.34;;;7.80;100.00
19672;BME280;9983;51.114;13.788;2023-02-13T04:54:04;101476.03;;;7.72;100.00
19672;BME280;9983;51.114;13.788;2023-02-13T04:59:04;101479.88;;;7.93;100.00
19672;BME280;9983;51.114;13.788;2023-02-13T05:04:04;101469.22;;;7.68;100.00
19672;BME280;9983;51.114;13.788;2023-02-13T05:09:04;101476.03;;;7.46;100.00
19672;BME280;9983;51.114;13.788;2023-02-13T05:14:05;101475.19;;;7.58;100.00
19672;BME280;9983;51.114;13.788;2023-02-13T05:19:05;101490.34;;;7.71;100.00
19672;BME280;9983;51.114;13.788;2023-02-13T05:24:05;101478.59;;;7.35;100.00
19672;BME280;9983;51.114;13.788;2023-02-13T05:29:07;101484.38;;;7.67;100.00
19672;BME280;9983;51.114;13.788;2023-02-13T05:34:23;101480.31;;;7.61;100.00
19672;BME280;9983;51.114;13.788;2023-02-13T05:39:23;101476.25;;;7.31;100.00
19672;BME280;9983;51.114;13.788;2023-02-13T05:44:24;101482.63;;;7.28;100.00
19672;BME280;9983;51.114;13.788;2023-02-13T05:49:24;101469.19;;;7.55;100.00
19672;BME280;9983;51.114;13.788;2023-02-13T05:54:24;101473.56;;;7.31;100.00
19672;BME280;9983;51.114;13.788;2023-02-13T05:59:24;101473.25;;;7.10;100.00
19672;BME280;9983;51.114;13.788;2023-02-13T06:04:25;101473.38;;;7.46;100.00
19672;BME280;9983;51.114;13.788;2023-02-13T06:09:25;101482.25;;;7.59;100.00
19672;BME280;9983;51.114;13.788;2023-02-13T06:14:25;101485.53;;;7.25;100.00
19672;BME280;9983;51.114;13.788;2023-02-13T06:19:26;101501.81;;;7.08;100.00
19672;BME280;9983;51.114;13.788;2023-02-13T06:24:26;101490.47;;;6.92;100.00
19672;BME280;9983;51.114;13.788;2023-02-13T06:29:26;101500.28;;;7.43;100.00
19672;BME280;9983;51.114;13.788;2023-02-13T06:34:26;101496.28;;;7.11;100.00
19672;BME280;9983;51.114;13.788;2023-02-13T06:39:27;101507.00;;;7.61;100.00
19672;BME280;9983;51.114;13.788;2023-02-13T06:44:27;101508.53;;;7.01;100.00
19672;BME280;9983;51.114;13.788;2023-02-13T06:49:27;101516.38;;;7.29;100.00
19672;BME280;9983;51.114;13.788;2023-02-13T06:54:27;101512.34;;;7.36;100.00
19672;BME280;9983;51.114;13.788;2023-02-13T06:59:28;101517.84;;;7.20;100.00
19672;BME280;9983;51.114;13.788;2023-02-13T07:04:28;101528.34;;;7.36;100.00
19672;BME280;9983;51.114;13.788;2023-02-13T07:09:30;101529.63;;;7.43;100.00
19672;BME280;9983;51.114;13.788;2023-02-13T07:14:30;101529.09;;;7.63;100.00
19672;BME280;9983;51.114;13.788;2023-02-13T07:19:31;101522.91;;;7.50;100.00
19672;BME280;9983;51.114;13.788;2023-02-13T07:24:31;101528.97;;;7.27;100.00
19672;BME280;9983;51.114;13.788;2023-02-13T07:29:34;101526.44;;;7.63;100.00
19672;BME280;9983;51.114;13.788;2023-02-13T07:34:34;101532.78;;;7.23;100.00
19672;BME280;9983;51.114;13.788;2023-02-13T07:39:34;101529.16;;;7.24;100.00
19672;BME280;9983;51.114;13.788;2023-02-13T07:44:37;101535.63;;;7.59;100.00
19672;BME280;9983;51.114;13.788;2023-02-13T07:49:38;101532.63;;;7.64;100.00
19672;BME280;9983;51.114;13.788;2023-02-13T07:54:38;101553.53;;;7.32;100.00
19672;BME280;9983;51.114;13.788;2023-02-13T07:59:46;101532.66;;;7.77;100.00
19672;BME280;9983;51.114;13.788;2023-02-13T08:04:46;101542.25;;;7.92;100.00
19672;BME280;9983;51.114;13.788;2023-02-13T08:09:46;101543.09;;;8.05;100.00
19672;BME280;9983;51.114;13.788;2023-02-13T08:15:06;101548.69;;;7.77;100.00
19672;BME280;9983;51.114;13.788;2023-02-13T08:20:07;101546.91;;;7.25;100.00
19672;BME280;9983;51.114;13.788;2023-02-13T08:25:07;101551.00;;;7.81;100.00
19672;BME280;9983;51.114;13.788;2023-02-13T08:30:08;101551.00;;;8.19;100.00
19672;BME280;9983;51.114;13.788;2023-02-13T08:35:08;101555.72;;;7.78;100.00
19672;BME280;9983;51.114;13.788;2023-02-13T08:40:09;101553.91;;;7.78;100.00
19672;BME280;9983;51.114;13.788;2023-02-13T08:45:09;101554.19;;;7.48;100.00
19672;BME280;9983;51.114;13.788;2023-02-13T08:50:10;101545.66;;;7.56;100.00
19672;BME280;9983;51.114;13.788;2023-02-13T08:55:10;101550.56;;;7.49;100.00
19672;BME280;9983;51.114;13.788;2023-02-13T09:00:11;101558.25;;;7.41;100.00
19672;BME280;9983;51.114;13.788;2023-02-13T09:05:11;101566.78;;;7.46;100.00
19672;BME280;9983;51.114;13.788;2023-02-13T09:10:12;101580.06;;;7.60;100.00
19672;BME280;9983;51.114;13.788;2023-02-13T09:15:12;101571.66;;;7.27;100.00
19672;BME280;9983;51.114;13.788;2023-02-13T09:20:12;101563.81;;;7.63;100.00
19672;BME280;9983;51.114;13.788;2023-02-13T09:25:13;101572.06;;;7.86;100.00
19672;BME280;9983;51.114;13.788;2023-02-13T09:30:13;101571.06;;;7.61;100.00
19672;BME280;9983;51.114;13.788;2023-02-13T09:35:22;101571.06;;;8.12;100.00
19672;BME280;9983;51.114;13.788;2023-02-13T09:40:53;101567.25;;;7.91;100.00
19672;BME280;9983;51.114;13.788;2023-02-13T09:45:55;101568.97;;;8.17;100.00
19672;BME280;9983;51.114;13.788;2023-02-13T09:50:57;101580.72;;;8.40;100.00
19672;BME280;9983;51.114;13.788;2023-02-13T09:56:05;101581.13;;;8.47;100.00
19672;BME280;9983;51.114;13.788;2023-02-13T10:06:31;101587.44;;;8.82;100.00
19672;BME280;9983;51.114;13.788;2023-02-13T10:11:47;101589.53;;;9.02;100.00
19672;BME280;9983;51.114;13.788;2023-02-13T10:17:00;101589.63;;;9.25;100.00
19672;BME280;9983;51.114;13.788;2023-02-13T10:22:09;101589.06;;;9.08;100.00
19672;BME280;9983;51.114;13.788;2023-02-13T10:32:17;101577.16;;;9.47;100.00
19672;BME280;9983;51.114;13.788;2023-02-13T10:37:21;101565.00;;;9.55;100.00
19672;BME280;9983;51.114;13.788;2023-02-13T10:42:31;101562.63;;;9.74;100.00
19672;BME280;9983;51.114;13.788;2023-02-13T10:47:59;101552.22;;;9.47;100.00
19672;BME280;9983;51.114;13.788;2023-02-13T10:53:13;101540.94;;;9.66;100.00
19672;BME280;9983;51.114;13.788;2023-02-13T10:58:43;101540.97;;;9.31;100.00
19672;BME280;9983;51.114;13.788;2023-02-13T11:03:48;101537.47;;;9.06;100.00
19672;BME280;9983;51.114;13.788;2023-02-13T11:08:59;101548.28;;;8.81;100.00
19672;BME280;9983;51.114;13.788;2023-02-13T11:14:17;101537.09;;;9.35;100.00
19672;BME280;9983;51.114;13.788;2023-02-13T11:19:21;101520.34;;;9.44;100.00
19672;BME280;9983;51.114;13.788;2023-02-13T11:24:25;101528.91;;;9.25;100.00
19672;BME280;9983;51.114;13.788;2023-02-13T11:29:29;101530.84;;;9.58;100.00
19672;BME280;9983;51.114;13.788;2023-02-13T11:34:31;101530.53;;;8.80;100.00
19672;BME280;9983;51.114;13.788;2023-02-13T11:39:32;101525.72;;;8.85;100.00
19672;BME280;9983;51.114;13.788;2023-02-13T11:44:32;101525.06;;;9.05;100.00
19672;BME280;9983;51.114;13.788;2023-02-13T11:49:36;101516.19;;;8.81;100.00
19672;BME280;9983;51.114;13.788;2023-02-13T11:54:43;101517.69;;;8.85;100.00
19672;BME280;9983;51.114;13.788;2023-02-13T11:59:46;101520.06;;;8.77;100.00
19672;BME280;9983;51.114;13.788;2023-02-13T12:04:52;101506.38;;;9.17;100.00
19672;BME280;9983;51.114;13.788;2023-02-13T12:15:22;101508.84;;;9.20;100.00
19672;BME280;9983;51.114;13.788;2023-02-13T12:20:24;101493.03;;;8.93;100.00
19672;BME280;9983;51.114;13.788;2023-02-13T12:57:55;101473.94;;;8.97;100.00
19672;BME280;9983;51.114;13.788;2023-02-13T13:03:22;101473.34;;;8.94;100.00
19672;BME280;9983;51.114;13.788;2023-02-13T13:08:41;101468.00;;;9.51;100.00
19672;BME280;9983;51.114;13.788;2023-02-13T13:19:06;101464.56;;;9.27;100.00
19672;BME280;9983;51.114;13.788;2023-02-13T13:24:36;101464.19;;;8.85;100.00
19672;BME280;9983;51.114;13.788;2023-02-13T13:29:55;101471.63;;;8.93;100.00
19672;BME280;9983;51.114;13.788;2023-02-13T13:34:56;101470.63;;;8.59;100.00
19672;BME280;9983;51.114;13.788;2023-02-13T13:45:16;101474.75;;;9.10;100.00
19672;BME280;9983;51.114;13.788;2023-02-13T13:50:25;101469.53;;;8.85;100.00
19672;BME280;9983;51.114;13.788;2023-02-13T14:00:45;101467.25;;;9.38;100.00
19672;BME280;9983;51.114;13.788;2023-02-13T14:06:07;101465.59;;;9.13;100.00
19672;BME280;9983;51.114;13.788;2023-02-13T14:11:36;101477.59;;;8.96;100.00
19672;BME280;9983;51.114;13.788;2023-02-13T14:16:43;101479.28;;;8.97;100.00
19672;BME280;9983;51.114;13.788;2023-02-13T14:21:44;101475.78;;;8.73;100.00
19672;BME280;9983;51.114;13.788;2023-02-13T14:26:56;101470.50;;;8.84;100.00
19672;BME280;9983;51.114;13.788;2023-02-13T14:32:06;101478.53;;;8.36;100.00
19672;BME280;9983;51.114;13.788;2023-02-13T14:37:20;101477.03;;;8.32;100.00
19672;BME280;9983;51.114;13.788;2023-02-13T14:42:27;101468.88;;;8.21;100.00
19672;BME280;9983;51.114;13.788;2023-02-13T14:47:31;101451.84;;;8.11;100.00
19672;BME280;9983;51.114;13.788;2023-02-13T14:52:37;101447.88;;;8.53;100.00
19672;BME280;9983;51.114;13.788;2023-02-13T14:57:44;101452.44;;;8.27;100.00
19672;BME280;9983;51.114;13.788;2023-02-13T15:02:52;101449.56;;;8.78;100.00
19672;BME280;9983;51.114;13.788;2023-02-13T15:08:01;101445.38;;;8.26;100.00
19672;BME280;9983;51.114;13.788;2023-02-13T15:13:04;101435.13;;;8.20;100.00
19672;BME280;9983;51.114;13.788;2023-02-13T15:18:14;101429.69;;;7.73;100.00
19672;BME280;9983;51.114;13.788;2023-02-13T15:23:20;101427.06;;;7.96;100.00
19672;BME280;9983;51.114;13.788;2023-02-13T15:28:22;101425.72;;;8.27;100.00
19672;BME280;9983;51.114;13.788;2023-02-13T15:33:58;101414.88;;;8.05;100.00
19672;BME280;9983;51.114;13.788;2023-02-13T15:39:05;101410.44;;;7.93;100.00
19672;BME280;9983;51.114;13.788;2023-02-13T15:44:15;101412.53;;;8.37;100.00
19672;BME280;9983;51.114;13.788;2023-02-13T15:49:19;101419.38;;;8.41;100.00
19672;BME280;9983;51.114;13.788;2023-02-13T15:54:27;101434.91;;;8.23;100.00
19672;BME280;9983;51.114;13.788;2023-02-13T15:59:32;101434.50;;;8.77;100.00
19672;BME280;9983;51.114;13.788;2023-02-13T16:04:34;101413.22;;;8.52;100.00
19672;BME280;9983;51.114;13.788;2023-02-13T16:09:35;101412.00;;;8.80;100.00
19672;BME280;9983;51.114;13.788;2023-02-13T16:14:43;101420.50;;;8.50;100.00
19672;BME280;9983;51.114;13.788;2023-02-13T16:19:58;101416.56;;;8.06;100.00
19672;BME280;9983;51.114;13.788;2023-02-13T16:25:05;101424.88;;;8.51;100.00
19672;BME280;9983;51.114;13.788;2023-02-13T16:30:14;101425.72;;;8.75;100.00
19672;BME280;9983;51.114;13.788;2023-02-13T16:35:29;101421.53;;;8.60;100.00
19672;BME280;9983;51.114;13.788;2023-02-13T16:40:42;101430.09;;;8.76;100.00
19672;BME280;9983;51.114;13.788;2023-02-13T16:45:42;101436.63;;;8.72;100.00
19672;BME280;9983;51.114;13.788;2023-02-13T16:50:43;101413.22;;;8.52;100.00
19672;BME280;9983;51.114;13.788;2023-02-13T16:55:43;101415.69;;;8.18;100.00
19672;BME280;9983;51.114;13.788;2023-02-13T17:00:49;101420.38;;;8.27;100.00
19672;BME280;9983;51.114;13.788;2023-02-13T17:05:49;101425.59;;;7.92;100.00
19672;BME280;9983;51.114;13.788;2023-02-13T17:11:06;101421.13;;;7.93;100.00
19672;BME280;9983;51.114;13.788;2023-02-13T17:16:07;101422.81;;;7.94;100.00
19672;BME280;9983;51.114;13.788;2023-02-13T17:21:08;101419.81;;;8.22;100.00
19672;BME280;9983;51.114;13.788;2023-02-13T17:26:08;101414.28;;;8.25;100.00
19672;BME280;9983;51.114;13.788;2023-02-13T17:31:09;101409.03;;;8.36;100.00
19672;BME280;9983;51.114;13.788;2023-02-13T17:36:12;101402.25;;;8.44;100.00
19672;BME280;9983;51.114;13.788;2023-02-13T17:41:16;101421.69;;;8.46;100.00
19672;BME280;9983;51.114;13.788;2023-02-13T17:46:16;101409.75;;;8.38;100.00
19672;BME280;9983;51.114;13.788;2023-02-13T17:51:17;101405.88;;;8.06;100.00
19672;BME280;9983;51.114;13.788;2023-02-13T17:56:17;101403.88;;;7.60;100.00
19672;BME280;9983;51.114;13.788;2023-02-13T18:01:17;101408.28;;;8.34;100.00
19672;BME280;9983;51.114;13.788;2023-02-13T18:06:17;101414.06;;;8.28;100.00
19672;BME280;9983;51.114;13.788;2023-02-13T18:11:18;101420.31;;;8.40;100.00
19672;BME280;9983;51.114;13.788;2023-02-13T18:16:18;101428.59;;;8.61;100.00
19672;BME280;9983;51.114;13.788;2023-02-13T18:21:22;101431.75;;;8.66;100.00
19672;BME280;9983;51.114;13.788;2023-02-13T18:26:22;101419.59;;;8.38;100.00
19672;BME280;9983;51.114;13.788;2023-02-13T18:31:22;101431.72;;;8.18;100.00
19672;BME280;9983;51.114;13.788;2023-02-13T18:36:22;101413.06;;;8.42;100.00
19672;BME280;9983;51.114;13.788;2023-02-13T18:41:23;101413.44;;;8.12;100.00
19672;BME280;9983;51.114;13.788;2023-02-13T18:46:23;101411.91;;;7.97;100.00
19672;BME280;9983;51.114;13.788;2023-02-13T18:51:23;101400.06;;;8.25;100.00
19672;BME280;9983;51.114;13.788;2023-02-13T18:56:23;101401.50;;;8.05;100.00
19672;BME280;9983;51.114;13.788;2023-02-13T19:01:24;101398.84;;;8.05;100.00
19672;BME280;9983;51.114;13.788;2023-02-13T19:06:25;101387.47;;;8.14;100.00
19672;BME280;9983;51.114;13.788;2023-02-13T19:11:26;101385.84;;;7.88;100.00
19672;BME280;9983;51.114;13.788;2023-02-13T19:16:28;101388.56;;;7.75;100.00
19672;BME280;9983;51.114;13.788;2023-02-13T19:21:31;101397.69;;;7.47;100.00
19672;BME280;9983;51.114;13.788;2023-02-13T19:26:31;101401.84;;;8.00;100.00
19672;BME280;9983;51.114;13.788;2023-02-13T19:31:32;101430.78;;;7.57;100.00
19672;BME280;9983;51.114;13.788;2023-02-13T19:36:33;101429.00;;;7.94;100.00
19672;BME280;9983;51.114;13.788;2023-02-13T19:41:33;101431.59;;;7.83;100.00
19672;BME280;9983;51.114;13.788;2023-02-13T19:46:35;101433.81;;;8.02;100.00
19672;BME280;9983;51.114;13.788;2023-02-13T19:51:36;101446.03;;;8.17;100.00
19672;BME280;9983;51.114;13.788;2023-02-13T19:56:37;101441.50;;;8.30;100.00
19672;BME280;9983;51.114;13.788;2023-02-13T20:01:38;101428.66;;;7.99;100.00
19672;BME280;9983;51.114;13.788;2023-02-13T20:06:41;101422.22;;;8.14;100.00
19672;BME280;9983;51.114;13.788;2023-02-13T20:11:42;101418.66;;;8.26;100.00
19672;BME280;9983;51.114;13.788;2023-02-13T20:16:42;101428.50;;;8.13;100.00
19672;BME280;9983;51.114;13.788;2023-02-13T20:21:44;101427.91;;;7.97;100.00
19672;BME280;9983;51.114;13.788;2023-02-13T20:26:44;101442.88;;;7.99;100.00
19672;BME280;9983;51.114;13.788;2023-02-13T20:31:45;101437.69;;;8.34;100.00
19672;BME280;9983;51.114;13.788;2023-02-13T20:36:45;101439.19;;;8.13;100.00
19672;BME280;9983;51.114;13.788;2023-02-13T20:41:45;101441.31;;;8.33;100.00
19672;BME280;9983;51.114;13.788;2023-02-13T20:46:49;101440.25;;;8.23;100.00
19672;BME280;9983;51.114;13.788;2023-02-13T20:51:50;101437.44;;;8.37;100.00
19672;BME280;9983;51.114;13.788;2023-02-13T20:56:50;101435.88;;;8.22;100.00
19672;BME280;9983;51.114;13.788;2023-02-13T21:01:50;101454.13;;;8.41;100.00
19672;BME280;9983;51.114;13.788;2023-02-13T21:06:51;101445.31;;;8.52;100.00
19672;BME280;9983;51.114;13.788;2023-02-13T21:11:51;101452.00;;;8.33;100.00
19672;BME280;9983;51.114;13.788;2023-02-13T21:16:51;101447.69;;;8.44;100.00
19672;BME280;9983;51.114;13.788;2023-02-13T21:21:51;101439.59;;;8.32;100.00
19672;BME280;9983;51.114;13.788;2023-02-13T21:26:52;101445.38;;;8.26;100.00
19672;BME280;9983;51.114;13.788;2023-02-13T21:31:52;101453.16;;;8.29;100.00
19672;BME280;9983;51.114;13.788;2023-02-13T21:36:52;101444.28;;;8.42;100.00
19672;BME280;9983;51.114;13.788;2023-02-13T21:41:53;101444.06;;;8.45;100.00
19672;BME280;9983;51.114;13.788;2023-02-13T21:46:53;101446.19;;;8.40;100.00
19672;BME280;9983;51.114;13.788;2023-02-13T21:51:53;101448.47;;;8.57;100.00
19672;BME280;9983;51.114;13.788;2023-02-13T21:56:53;101437.72;;;8.09;100.00
19672;BME280;9983;51.114;13.788;2023-02-13T22:01:54;101443.75;;;8.00;100.00
19672;BME280;9983;51.114;13.788;2023-02-13T22:06:54;101440.09;;;8.01;100.00
19672;BME280;9983;51.114;13.788;2023-02-13T22:11:55;101441.28;;;7.97;100.00
19672;BME280;9983;51.114;13.788;2023-02-13T22:16:55;101446.22;;;8.27;100.00
19672;BME280;9983;51.114;13.788;2023-02-13T22:21:55;101455.81;;;8.29;100.00
19672;BME280;9983;51.114;13.788;2023-02-13T22:26:55;101471.25;;;8.13;100.00
19672;BME280;9983;51.114;13.788;2023-02-13T22:31:56;101455.44;;;8.35;100.00
19672;BME280;9983;51.114;13.788;2023-02-13T22:36:56;101467.59;;;8.40;100.00
19672;BME280;9983;51.114;13.788;2023-02-13T22:41:56;101467.38;;;8.43;100.00
19672;BME280;9983;51.114;13.788;2023-02-13T22:46:56;101465.56;;;7.94;100.00
19672;BME280;9983;51.114;13.788;2023-02-13T22:51:57;101469.97;;;8.31;100.00
19672;BME280;9983;51.114;13.788;2023-02-13T22:56:57;101468.97;;;7.71;100.00
19672;BME280;9983;51.114;13.788;2023-02-13T23:01:57;101480.63;;;7.95;100.00
19672;BME280;9983;51.114;13.788;2023-02-13T23:06:57;101479.00;;;7.80;100.00
19672;BME280;9983;51.114;13.788;2023-02-13T23:11:58;101492.03;;;8.10;100.00
19672;BME280;9983;51.114;13.788;2023-02-13T23:17:17;101489.97;;;8.13;100.00
19672;BME280;9983;51.114;13.788;2023-02-13T23:22:35;101491.63;;;8.03;100.00
19672;BME280;9983;51.114;13.788;2023-02-13T23:27:36;101490.50;;;8.18;100.00
19672;BME280;9983;51.114;13.788;2023-02-13T23:32:37;101483.66;;;8.14;100.00
19672;BME280;9983;51.114;13.788;2023-02-13T23:37:37;101481.59;;;7.94;100.00
19672;BME280;9983;51.114;13.788;2023-02-13T23:42:37;101490.53;;;8.06;100.00
19672;BME280;9983;51.114;13.788;2023-02-13T23:47:37;101477.16;;;8.18;100.00
19672;BME280;9983;51.114;13.788;2023-02-13T23:52:38;101472.47;;;7.96;100.00
19672;BME280;9983;51.114;13.788;2023-02-13T23:57:38;101470.91;;;7.94;100.00
